sensor_id;sensor_type;location;lat;lon;timestamp;pressure;altitude;pressure_sealevel;temperature;humidity
9676;BME280;4876;42.656;23.292;2022-11-15T00:02:20;94916.75;;;5.78;87.80
9676;BME280;4876;42.656;23.292;2022-11-15T00:04:47;94922.47;;;5.75;87.24
9676;BME280;4876;42.656;23.292;2022-11-15T00:07:14;94908.38;;;5.76;85.91
9676;BME280;4876;42.656;23.292;2022-11-15T00:09:41;94920.16;;;5.74;85.73
9676;BME280;4876;42.656;23.292;2022-11-15T00:12:09;94914.66;;;5.70;85.63
9676;BME280;4876;42.656;23.292;2022-11-15T00:14:35;94914.16;;;5.68;86.00
9676;BME280;4876;42.656;23.292;2022-11-15T00:17:02;94911.00;;;5.71;86.21
9676;BME280;4876;42.656;23.292;2022-11-15T00:19:29;94911.81;;;5.72;85.97
9676;BME280;4876;42.656;23.292;2022-11-15T00:21:56;94905.78;;;5.71;86.02
9676;BME280;4876;42.656;23.292;2022-11-15T00:24:22;94902.94;;;5.73;86.00
9676;BME280;4876;42.656;23.292;2022-11-15T00:26:49;94898.22;;;5.70;86.40
9676;BME280;4876;42.656;23.292;2022-11-15T00:29:17;94901.59;;;5.75;85.24
9676;BME280;4876;42.656;23.292;2022-11-15T00:31:44;94872.69;;;5.56;84.78
9676;BME280;4876;42.656;23.292;2022-11-15T00:34:11;94897.44;;;5.69;85.56
9676;BME280;4876;42.656;23.292;2022-11-15T00:36:38;94898.72;;;5.77;85.60
9676;BME280;4876;42.656;23.292;2022-11-15T00:39:04;94888.56;;;5.65;86.51
9676;BME280;4876;42.656;23.292;2022-11-15T00:41:31;94887.53;;;5.66;86.21
9676;BME280;4876;42.656;23.292;2022-11-15T00:43:58;94890.69;;;5.58;86.92
9676;BME280;4876;42.656;23.292;2022-11-15T00:46:26;94895.38;;;5.61;87.55
9676;BME280;4876;42.656;23.292;2022-11-15T00:48:53;94889.63;;;5.64;87.70
9676;BME280;4876;42.656;23.292;2022-11-15T00:51:20;94891.44;;;5.58;87.66
9676;BME280;4876;42.656;23.292;2022-11-15T00:53:46;94889.13;;;5.57;88.02
9676;BME280;4876;42.656;23.292;2022-11-15T00:56:13;94888.59;;;5.60;88.41
9676;BME280;4876;42.656;23.292;2022-11-15T00:58:40;94884.41;;;5.59;89.00
9676;BME280;4876;42.656;23.292;2022-11-15T01:01:08;94879.47;;;5.57;89.12
9676;BME280;4876;42.656;23.292;2022-11-15T01:03:37;94884.94;;;5.61;89.60
9676;BME280;4876;42.656;23.292;2022-11-15T01:06:05;94883.88;;;5.67;88.67
9676;BME280;4876;42.656;23.292;2022-11-15T01:08:32;94879.19;;;5.64;86.98
9676;BME280;4876;42.656;23.292;2022-11-15T01:11:03;94879.22;;;5.54;87.82
9676;BME280;4876;42.656;23.292;2022-11-15T01:13:31;94875.56;;;5.50;88.39
9676;BME280;4876;42.656;23.292;2022-11-15T01:15:58;94882.34;;;5.51;89.11
9676;BME280;4876;42.656;23.292;2022-11-15T01:18:25;94879.22;;;5.54;89.75
9676;BME280;4876;42.656;23.292;2022-11-15T01:20:53;94879.19;;;5.59;89.63
9676;BME280;4876;42.656;23.292;2022-11-15T01:23:20;94878.69;;;5.57;89.09
9676;BME280;4876;42.656;23.292;2022-11-15T01:25:47;94873.97;;;5.64;89.65
9676;BME280;4876;42.656;23.292;2022-11-15T01:28:14;94873.19;;;5.58;90.14
9676;BME280;4876;42.656;23.292;2022-11-15T01:30:40;94864.09;;;5.51;90.14
9676;BME280;4876;42.656;23.292;2022-11-15T01:33:07;94833.91;;;5.19;90.48
9676;BME280;4876;42.656;23.292;2022-11-15T01:35:38;94871.69;;;5.37;91.28
9676;BME280;4876;42.656;23.292;2022-11-15T01:38:07;94869.84;;;5.32;92.82
9676;BME280;4876;42.656;23.292;2022-11-15T01:40:33;94865.19;;;5.29;93.78
9676;BME280;4876;42.656;23.292;2022-11-15T01:43:22;94872.50;;;5.17;94.60
9676;BME280;4876;42.656;23.292;2022-11-15T01:45:52;94863.34;;;5.14;95.48
9676;BME280;4876;42.656;23.292;2022-11-15T01:48:21;94858.94;;;5.10;95.40
9676;BME280;4876;42.656;23.292;2022-11-15T01:50:49;94869.34;;;5.15;94.88
9676;BME280;4876;42.656;23.292;2022-11-15T01:53:19;94868.84;;;5.13;94.54
9676;BME280;4876;42.656;23.292;2022-11-15T01:55:47;94864.66;;;5.22;93.39
9676;BME280;4876;42.656;23.292;2022-11-15T01:58:14;94858.13;;;5.20;92.38
9676;BME280;4876;42.656;23.292;2022-11-15T02:00:41;94854.50;;;5.05;92.85
9676;BME280;4876;42.656;23.292;2022-11-15T02:03:11;94870.41;;;5.04;93.40
9676;BME280;4876;42.656;23.292;2022-11-15T02:05:38;94861.28;;;5.01;94.18
9676;BME280;4876;42.656;23.292;2022-11-15T02:08:05;94864.66;;;4.97;93.46
9676;BME280;4876;42.656;23.292;2022-11-15T02:10:34;94863.91;;;4.91;93.89
9676;BME280;4876;42.656;23.292;2022-11-15T02:13:01;94869.63;;;4.88;93.24
9676;BME280;4876;42.656;23.292;2022-11-15T02:15:40;94857.91;;;4.85;94.00
9676;BME280;4876;42.656;23.292;2022-11-15T02:18:17;94857.63;;;4.82;93.49
9676;BME280;4876;42.656;23.292;2022-11-15T02:21:02;94862.56;;;4.83;92.65
9676;BME280;4876;42.656;23.292;2022-11-15T02:27:19;94862.31;;;4.90;92.56
9676;BME280;4876;42.656;23.292;2022-11-15T02:30:03;94863.63;;;4.93;92.09
9676;BME280;4876;42.656;23.292;2022-11-15T02:32:36;94862.59;;;4.94;92.41
9676;BME280;4876;42.656;23.292;2022-11-15T02:35:11;94853.72;;;4.95;92.47
9676;BME280;4876;42.656;23.292;2022-11-15T02:37:45;94855.56;;;5.04;92.61
9676;BME280;4876;42.656;23.292;2022-11-15T02:40:21;94858.41;;;5.03;92.65
9676;BME280;4876;42.656;23.292;2022-11-15T02:42:54;94846.69;;;5.05;92.90
9676;BME280;4876;42.656;23.292;2022-11-15T02:45:43;94852.69;;;5.11;92.03
9676;BME280;4876;42.656;23.292;2022-11-15T02:48:13;94854.25;;;5.17;91.30
9676;BME280;4876;42.656;23.292;2022-11-15T02:50:42;94855.03;;;5.18;91.39
9676;BME280;4876;42.656;23.292;2022-11-15T02:53:10;94847.72;;;5.20;91.16
9676;BME280;4876;42.656;23.292;2022-11-15T02:55:38;94855.00;;;5.28;91.33
9676;BME280;4876;42.656;23.292;2022-11-15T02:58:36;94850.81;;;5.32;90.18
9676;BME280;4876;42.656;23.292;2022-11-15T03:01:18;94855.75;;;5.33;90.67
9676;BME280;4876;42.656;23.292;2022-11-15T03:03:59;94859.19;;;5.19;92.42
9676;BME280;4876;42.656;23.292;2022-11-15T03:06:35;94860.75;;;5.14;92.56
9676;BME280;4876;42.656;23.292;2022-11-15T03:09:10;94861.78;;;5.19;91.03
9676;BME280;4876;42.656;23.292;2022-11-15T03:11:50;94857.34;;;5.24;91.02
9676;BME280;4876;42.656;23.292;2022-11-15T03:14:23;94857.88;;;5.26;91.70
9676;BME280;4876;42.656;23.292;2022-11-15T03:16:58;94855.25;;;5.31;90.99
9676;BME280;4876;42.656;23.292;2022-11-15T03:19:33;94852.13;;;5.29;91.20
9676;BME280;4876;42.656;23.292;2022-11-15T03:22:04;94849.53;;;5.34;90.64
9676;BME280;4876;42.656;23.292;2022-11-15T03:24:34;94848.72;;;5.34;90.70
9676;BME280;4876;42.656;23.292;2022-11-15T03:27:03;94833.34;;;5.37;90.46
9676;BME280;4876;42.656;23.292;2022-11-15T03:29:34;94852.38;;;5.48;89.24
9676;BME280;4876;42.656;23.292;2022-11-15T03:32:05;94850.00;;;5.52;89.28
9676;BME280;4876;42.656;23.292;2022-11-15T03:34:39;94842.94;;;5.52;89.26
9676;BME280;4876;42.656;23.292;2022-11-15T03:37:08;94840.09;;;5.54;89.58
9676;BME280;4876;42.656;23.292;2022-11-15T03:39:38;94833.03;;;5.54;89.04
9676;BME280;4876;42.656;23.292;2022-11-15T03:42:15;94829.63;;;5.59;89.76
9676;BME280;4876;42.656;23.292;2022-11-15T03:44:49;94833.00;;;5.64;89.18
9676;BME280;4876;42.656;23.292;2022-11-15T03:47:22;94830.66;;;5.63;89.62
9676;BME280;4876;42.656;23.292;2022-11-15T03:49:52;94828.06;;;5.63;90.42
9676;BME280;4876;42.656;23.292;2022-11-15T03:52:22;94824.88;;;5.71;91.99
9676;BME280;4876;42.656;23.292;2022-11-15T03:54:52;94822.41;;;5.40;93.86
9676;BME280;4876;42.656;23.292;2022-11-15T03:57:19;94823.41;;;5.45;96.14
9676;BME280;4876;42.656;23.292;2022-11-15T03:59:45;94815.13;;;5.12;98.59
9676;BME280;4876;42.656;23.292;2022-11-15T04:02:12;94814.63;;;4.95;100.00
9676;BME280;4876;42.656;23.292;2022-11-15T04:04:39;94813.59;;;4.65;100.00
9676;BME280;4876;42.656;23.292;2022-11-15T04:07:07;94821.41;;;4.75;100.00
9676;BME280;4876;42.656;23.292;2022-11-15T04:09:34;94820.34;;;4.71;100.00
9676;BME280;4876;42.656;23.292;2022-11-15T04:12:22;94817.50;;;4.98;100.00
9676;BME280;4876;42.656;23.292;2022-11-15T04:14:56;94814.63;;;5.00;100.00
9676;BME280;4876;42.656;23.292;2022-11-15T04:17:34;94803.69;;;4.82;100.00
9676;BME280;4876;42.656;23.292;2022-11-15T04:20:00;94806.31;;;4.62;100.00
9676;BME280;4876;42.656;23.292;2022-11-15T04:22:46;94812.25;;;4.32;100.00
9676;BME280;4876;42.656;23.292;2022-11-15T04:25:31;94807.28;;;4.20;100.00
9676;BME280;4876;42.656;23.292;2022-11-15T04:27:57;94800.00;;;4.12;100.00
9676;BME280;4876;42.656;23.292;2022-11-15T04:30:24;94807.50;;;3.98;100.00
9676;BME280;4876;42.656;23.292;2022-11-15T04:32:51;94794.19;;;3.85;100.00
9676;BME280;4876;42.656;23.292;2022-11-15T04:35:17;94800.72;;;3.97;100.00
9676;BME280;4876;42.656;23.292;2022-11-15T04:37:46;94800.47;;;3.94;100.00
9676;BME280;4876;42.656;23.292;2022-11-15T04:40:11;94801.72;;;3.81;100.00
9676;BME280;4876;42.656;23.292;2022-11-15T04:42:40;94802.94;;;3.58;100.00
9676;BME280;4876;42.656;23.292;2022-11-15T04:45:08;94801.28;;;3.37;100.00
9676;BME280;4876;42.656;23.292;2022-11-15T04:47:35;94812.13;;;3.23;100.00
9676;BME280;4876;42.656;23.292;2022-11-15T04:50:03;94812.56;;;3.10;100.00
9676;BME280;4876;42.656;23.292;2022-11-15T04:52:30;94803.47;;;3.08;100.00
9676;BME280;4876;42.656;23.292;2022-11-15T04:54:58;94801.13;;;3.06;100.00
9676;BME280;4876;42.656;23.292;2022-11-15T04:57:25;94808.94;;;3.11;100.00
9676;BME280;4876;42.656;23.292;2022-11-15T04:59:51;94807.56;;;3.04;100.00
9676;BME280;4876;42.656;23.292;2022-11-15T05:02:18;94811.16;;;2.97;100.00
9676;BME280;4876;42.656;23.292;2022-11-15T05:04:45;94811.28;;;3.13;100.00
9676;BME280;4876;42.656;23.292;2022-11-15T05:07:10;94807.44;;;3.20;100.00
9676;BME280;4876;42.656;23.292;2022-11-15T05:09:37;94810.28;;;3.19;100.00
9676;BME280;4876;42.656;23.292;2022-11-15T05:12:05;94813.84;;;3.60;100.00
9676;BME280;4876;42.656;23.292;2022-11-15T05:14:32;94806.31;;;3.59;100.00
9676;BME280;4876;42.656;23.292;2022-11-15T05:16:59;94817.25;;;3.61;100.00
9676;BME280;4876;42.656;23.292;2022-11-15T05:19:26;94814.66;;;3.66;100.00
9676;BME280;4876;42.656;23.292;2022-11-15T05:21:53;94811.03;;;3.72;100.00
9676;BME280;4876;42.656;23.292;2022-11-15T05:24:19;94811.97;;;3.45;100.00
9676;BME280;4876;42.656;23.292;2022-11-15T05:26:46;94810.22;;;3.56;100.00
9676;BME280;4876;42.656;23.292;2022-11-15T05:29:14;94807.28;;;3.47;100.00
9676;BME280;4876;42.656;23.292;2022-11-15T05:31:41;94801.84;;;3.44;100.00
9676;BME280;4876;42.656;23.292;2022-11-15T05:34:09;94804.69;;;3.47;100.00
9676;BME280;4876;42.656;23.292;2022-11-15T05:36:37;94806.50;;;3.47;100.00
9676;BME280;4876;42.656;23.292;2022-11-15T05:39:06;94800.53;;;3.46;100.00
9676;BME280;4876;42.656;23.292;2022-11-15T05:41:35;94794.88;;;3.60;100.00
9676;BME280;4876;42.656;23.292;2022-11-15T05:44:05;94808.19;;;3.68;100.00
9676;BME280;4876;42.656;23.292;2022-11-15T05:46:35;94805.31;;;3.70;100.00
9676;BME280;4876;42.656;23.292;2022-11-15T05:49:07;94797.03;;;3.78;100.00
9676;BME280;4876;42.656;23.292;2022-11-15T05:51:35;94800.97;;;3.91;100.00
9676;BME280;4876;42.656;23.292;2022-11-15T05:54:02;94803.56;;;3.86;100.00
9676;BME280;4876;42.656;23.292;2022-11-15T05:56:29;94809.53;;;3.81;100.00
9676;BME280;4876;42.656;23.292;2022-11-15T05:58:57;94805.75;;;3.51;100.00
9676;BME280;4876;42.656;23.292;2022-11-15T06:01:25;94808.31;;;3.41;100.00
9676;BME280;4876;42.656;23.292;2022-11-15T06:03:54;94813.16;;;3.22;100.00
9676;BME280;4876;42.656;23.292;2022-11-15T06:06:21;94808.44;;;3.14;100.00
9676;BME280;4876;42.656;23.292;2022-11-15T06:08:48;94814.88;;;3.49;100.00
9676;BME280;4876;42.656;23.292;2022-11-15T06:11:14;94815.09;;;3.42;100.00
9676;BME280;4876;42.656;23.292;2022-11-15T06:13:41;94813.72;;;3.35;100.00
9676;BME280;4876;42.656;23.292;2022-11-15T06:16:08;94816.47;;;3.55;100.00
9676;BME280;4876;42.656;23.292;2022-11-15T06:18:35;94820.16;;;3.69;100.00
9676;BME280;4876;42.656;23.292;2022-11-15T06:21:04;94816.78;;;3.74;100.00
9676;BME280;4876;42.656;23.292;2022-11-15T06:23:32;94812.63;;;3.78;100.00
9676;BME280;4876;42.656;23.292;2022-11-15T06:26:00;94828.81;;;3.90;100.00
9676;BME280;4876;42.656;23.292;2022-11-15T06:28:28;94818.66;;;3.89;100.00
9676;BME280;4876;42.656;23.292;2022-11-15T06:30:55;94816.03;;;3.84;100.00
9676;BME280;4876;42.656;23.292;2022-11-15T06:33:22;94812.63;;;3.78;100.00
9676;BME280;4876;42.656;23.292;2022-11-15T06:35:50;94813.66;;;3.77;100.00
9676;BME280;4876;42.656;23.292;2022-11-15T06:38:18;94811.34;;;3.81;100.00
9676;BME280;4876;42.656;23.292;2022-11-15T06:40:45;94809.56;;;3.86;100.00
9676;BME280;4876;42.656;23.292;2022-11-15T06:43:12;94798.38;;;3.86;100.00
9676;BME280;4876;42.656;23.292;2022-11-15T06:45:39;94805.16;;;3.92;100.00
9676;BME280;4876;42.656;23.292;2022-11-15T06:48:06;94810.38;;;4.02;100.00
9676;BME280;4876;42.656;23.292;2022-11-15T06:50:33;94805.66;;;3.94;100.00
9676;BME280;4876;42.656;23.292;2022-11-15T06:53:03;94805.72;;;4.04;100.00
9676;BME280;4876;42.656;23.292;2022-11-15T06:55:31;94806.75;;;4.13;100.00
9676;BME280;4876;42.656;23.292;2022-11-15T06:57:58;94808.78;;;3.96;100.00
9676;BME280;4876;42.656;23.292;2022-11-15T07:00:25;94812.94;;;3.97;100.00
9676;BME280;4876;42.656;23.292;2022-11-15T07:02:51;94811.94;;;4.08;100.00
9676;BME280;4876;42.656;23.292;2022-11-15T07:05:18;94803.59;;;3.96;100.00
9676;BME280;4876;42.656;23.292;2022-11-15T07:07:51;94804.13;;;4.08;100.00
9676;BME280;4876;42.656;23.292;2022-11-15T07:10:18;94803.13;;;4.19;100.00
9676;BME280;4876;42.656;23.292;2022-11-15T07:12:48;94800.00;;;4.17;100.00
9676;BME280;4876;42.656;23.292;2022-11-15T07:15:15;94804.16;;;4.18;100.00
9676;BME280;4876;42.656;23.292;2022-11-15T07:17:42;94798.94;;;4.13;100.00
9676;BME280;4876;42.656;23.292;2022-11-15T07:20:09;94796.34;;;4.13;100.00
9676;BME280;4876;42.656;23.292;2022-11-15T07:22:36;94799.72;;;4.14;100.00
9676;BME280;4876;42.656;23.292;2022-11-15T07:25:03;94807.19;;;3.85;100.00
9676;BME280;4876;42.656;23.292;2022-11-15T07:27:30;94805.66;;;3.94;100.00
9676;BME280;4876;42.656;23.292;2022-11-15T07:29:58;94805.41;;;3.95;100.00
9676;BME280;4876;42.656;23.292;2022-11-15T07:32:25;94806.34;;;3.64;100.00
9676;BME280;4876;42.656;23.292;2022-11-15T07:34:52;94806.97;;;3.96;100.00
9676;BME280;4876;42.656;23.292;2022-11-15T07:37:19;94809.59;;;4.01;100.00
9676;BME280;4876;42.656;23.292;2022-11-15T07:39:46;94807.75;;;3.97;100.00
9676;BME280;4876;42.656;23.292;2022-11-15T07:42:12;94809.38;;;4.23;100.00
9676;BME280;4876;42.656;23.292;2022-11-15T07:44:57;94805.19;;;4.07;100.00
9676;BME280;4876;42.656;23.292;2022-11-15T07:47:25;94799.41;;;3.90;100.00
9676;BME280;4876;42.656;23.292;2022-11-15T07:49:51;94804.66;;;4.00;100.00
9676;BME280;4876;42.656;23.292;2022-11-15T07:52:18;94797.63;;;4.05;100.00
9676;BME280;4876;42.656;23.292;2022-11-15T07:54:45;94802.34;;;4.19;100.00
9676;BME280;4876;42.656;23.292;2022-11-15T07:57:11;94796.56;;;4.01;100.00
9676;BME280;4876;42.656;23.292;2022-11-15T07:59:38;94797.34;;;4.02;100.00
9676;BME280;4876;42.656;23.292;2022-11-15T08:02:05;94801.59;;;4.39;100.00
9676;BME280;4876;42.656;23.292;2022-11-15T08:04:33;94789.09;;;4.41;100.00
9676;BME280;4876;42.656;23.292;2022-11-15T08:07:00;94803.16;;;4.45;100.00
9676;BME280;4876;42.656;23.292;2022-11-15T08:09:26;94796.66;;;4.52;100.00
9676;BME280;4876;42.656;23.292;2022-11-15T08:11:53;94801.59;;;4.39;100.00
9676;BME280;4876;42.656;23.292;2022-11-15T08:14:20;94791.44;;;4.32;100.00
9676;BME280;4876;42.656;23.292;2022-11-15T08:16:47;94791.72;;;4.36;100.00
9676;BME280;4876;42.656;23.292;2022-11-15T08:19:14;94792.25;;;4.68;100.00
9676;BME280;4876;42.656;23.292;2022-11-15T08:21:42;94786.75;;;4.65;100.00
9676;BME280;4876;42.656;23.292;2022-11-15T08:24:09;94775.31;;;4.50;100.00
9676;BME280;4876;42.656;23.292;2022-11-15T08:26:37;94790.41;;;4.79;100.00
9676;BME280;4876;42.656;23.292;2022-11-15T08:29:04;94788.59;;;4.79;100.00
9676;BME280;4876;42.656;23.292;2022-11-15T08:31:32;94790.66;;;4.82;100.00
9676;BME280;4876;42.656;23.292;2022-11-15T08:34:00;94797.44;;;4.94;100.00
9676;BME280;4876;42.656;23.292;2022-11-15T08:36:27;94780.19;;;5.13;100.00
9676;BME280;4876;42.656;23.292;2022-11-15T08:38:55;94788.78;;;5.13;100.00
9676;BME280;4876;42.656;23.292;2022-11-15T08:41:25;94781.75;;;5.14;100.00
9676;BME280;4876;42.656;23.292;2022-11-15T08:43:53;94780.69;;;5.30;100.00
9676;BME280;4876;42.656;23.292;2022-11-15T08:46:19;94780.66;;;5.40;100.00
9676;BME280;4876;42.656;23.292;2022-11-15T08:48:46;94785.34;;;5.44;100.00
9676;BME280;4876;42.656;23.292;2022-11-15T08:51:13;94776.75;;;5.43;100.00
9676;BME280;4876;42.656;23.292;2022-11-15T08:53:40;94771.81;;;5.31;100.00
9676;BME280;4876;42.656;23.292;2022-11-15T08:56:09;94772.38;;;5.08;100.00
9676;BME280;4876;42.656;23.292;2022-11-15T08:58:36;94772.59;;;5.27;100.00
9676;BME280;4876;42.656;23.292;2022-11-15T09:01:04;94761.13;;;5.28;100.00
9676;BME280;4876;42.656;23.292;2022-11-15T09:03:31;94762.91;;;5.43;100.00
9676;BME280;4876;42.656;23.292;2022-11-15T09:05:59;94763.97;;;5.42;100.00
9676;BME280;4876;42.656;23.292;2022-11-15T09:08:30;94754.53;;;5.51;100.00
9676;BME280;4876;42.656;23.292;2022-11-15T09:10:57;94756.84;;;5.57;100.00
9676;BME280;4876;42.656;23.292;2022-11-15T09:13:25;94756.31;;;5.65;100.00
9676;BME280;4876;42.656;23.292;2022-11-15T09:15:51;94759.47;;;5.57;100.00
9676;BME280;4876;42.656;23.292;2022-11-15T09:18:18;94748.03;;;5.48;100.00
9676;BME280;4876;42.656;23.292;2022-11-15T09:20:47;94749.69;;;5.24;100.00
9676;BME280;4876;42.656;23.292;2022-11-15T09:23:14;94736.38;;;5.15;100.00
9676;BME280;4876;42.656;23.292;2022-11-15T09:25:41;94738.59;;;5.52;100.00
9676;BME280;4876;42.656;23.292;2022-11-15T09:28:08;94739.94;;;5.45;100.00
9676;BME280;4876;42.656;23.292;2022-11-15T09:30:36;94737.13;;;5.36;100.00
9676;BME280;4876;42.656;23.292;2022-11-15T09:33:06;94729.03;;;5.32;100.00
9676;BME280;4876;42.656;23.292;2022-11-15T09:35:34;94725.75;;;5.01;100.00
9676;BME280;4876;42.656;23.292;2022-11-15T09:38:01;94729.59;;;5.24;100.00
9676;BME280;4876;42.656;23.292;2022-11-15T09:40:30;94722.25;;;5.36;100.00
9676;BME280;4876;42.656;23.292;2022-11-15T09:43:25;94711.03;;;5.41;100.00
9676;BME280;4876;42.656;23.292;2022-11-15T09:46:04;94721.38;;;5.56;100.00
9676;BME280;4876;42.656;23.292;2022-11-15T09:48:46;94713.56;;;5.56;100.00
9676;BME280;4876;42.656;23.292;2022-11-15T09:51:21;94703.19;;;5.96;100.00
9676;BME280;4876;42.656;23.292;2022-11-15T09:53:57;94709.69;;;6.03;99.60
9676;BME280;4876;42.656;23.292;2022-11-15T09:56:27;94711.72;;;6.11;98.13
9676;BME280;4876;42.656;23.292;2022-11-15T09:59:01;94706.53;;;6.06;98.01
9676;BME280;4876;42.656;23.292;2022-11-15T10:01:47;94696.53;;;5.69;100.00
9676;BME280;4876;42.656;23.292;2022-11-15T10:04:16;94694.28;;;6.02;100.00
9676;BME280;4876;42.656;23.292;2022-11-15T10:06:46;94688.09;;;6.27;100.00
9676;BME280;4876;42.656;23.292;2022-11-15T10:09:18;94664.59;;;5.87;100.00
9676;BME280;4876;42.656;23.292;2022-11-15T10:11:47;94676.31;;;5.90;100.00
9676;BME280;4876;42.656;23.292;2022-11-15T10:14:18;94671.88;;;5.96;100.00
9676;BME280;4876;42.656;23.292;2022-11-15T10:17:08;94677.50;;;6.13;100.00
9676;BME280;4876;42.656;23.292;2022-11-15T10:19:49;94668.59;;;6.14;100.00
9676;BME280;4876;42.656;23.292;2022-11-15T10:22:26;94655.38;;;6.05;100.00
9676;BME280;4876;42.656;23.292;2022-11-15T10:25:06;94649.44;;;5.94;100.00
9676;BME280;4876;42.656;23.292;2022-11-15T10:27:36;94666.44;;;6.21;100.00
9676;BME280;4876;42.656;23.292;2022-11-15T10:30:06;94657.69;;;6.07;100.00
9676;BME280;4876;42.656;23.292;2022-11-15T10:32:39;94654.59;;;6.05;100.00
9676;BME280;4876;42.656;23.292;2022-11-15T10:35:20;94641.31;;;6.30;100.00
9676;BME280;4876;42.656;23.292;2022-11-15T10:37:47;94642.66;;;6.28;100.00
9676;BME280;4876;42.656;23.292;2022-11-15T10:40:20;94630.19;;;6.48;100.00
9676;BME280;4876;42.656;23.292;2022-11-15T10:42:47;94624.13;;;6.53;99.98
9676;BME280;4876;42.656;23.292;2022-11-15T10:45:26;94629.16;;;6.73;97.90
9676;BME280;4876;42.656;23.292;2022-11-15T10:48:21;94628.00;;;6.85;97.32
9676;BME280;4876;42.656;23.292;2022-11-15T10:50:50;94613.34;;;6.60;97.02
9676;BME280;4876;42.656;23.292;2022-11-15T10:53:27;94612.94;;;6.95;96.19
9676;BME280;4876;42.656;23.292;2022-11-15T10:55:58;94611.34;;;6.99;94.25
9676;BME280;4876;42.656;23.292;2022-11-15T10:58:37;94611.44;;;6.89;93.81
9676;BME280;4876;42.656;23.292;2022-11-15T11:01:15;94607.69;;;7.19;93.24
9676;BME280;4876;42.656;23.292;2022-11-15T11:03:45;94604.59;;;7.36;91.60
9676;BME280;4876;42.656;23.292;2022-11-15T11:06:14;94594.22;;;7.50;89.51
9676;BME280;4876;42.656;23.292;2022-11-15T11:08:55;94593.06;;;7.56;90.51
9676;BME280;4876;42.656;23.292;2022-11-15T11:11:22;94584.25;;;7.71;89.92
9676;BME280;4876;42.656;23.292;2022-11-15T11:13:49;94591.84;;;7.86;86.94
9676;BME280;4876;42.656;23.292;2022-11-15T11:16:41;94580.84;;;7.70;86.34
9676;BME280;4876;42.656;23.292;2022-11-15T11:19:29;94580.44;;;7.96;86.18
9676;BME280;4876;42.656;23.292;2022-11-15T11:22:03;94578.03;;;7.99;85.41
9676;BME280;4876;42.656;23.292;2022-11-15T11:24:36;94572.53;;;8.15;83.67
9676;BME280;4876;42.656;23.292;2022-11-15T11:27:13;94562.94;;;8.24;82.71
9676;BME280;4876;42.656;23.292;2022-11-15T11:29:53;94548.84;;;8.20;82.48
9676;BME280;4876;42.656;23.292;2022-11-15T11:35:20;94548.75;;;8.57;80.33
9676;BME280;4876;42.656;23.292;2022-11-15T11:37:51;94543.03;;;8.83;79.04
9676;BME280;4876;42.656;23.292;2022-11-15T11:40:30;94538.41;;;9.02;78.77
9676;BME280;4876;42.656;23.292;2022-11-15T11:43:03;94531.75;;;9.18;77.41
9676;BME280;4876;42.656;23.292;2022-11-15T11:45:52;94536.06;;;9.14;77.15
9676;BME280;4876;42.656;23.292;2022-11-15T11:48:34;94531.34;;;9.25;76.86
9676;BME280;4876;42.656;23.292;2022-11-15T11:51:15;94525.16;;;9.21;76.19
9676;BME280;4876;42.656;23.292;2022-11-15T11:53:50;94521.13;;;8.87;77.82
9676;BME280;4876;42.656;23.292;2022-11-15T11:56:25;94511.41;;;8.88;77.47
9676;BME280;4876;42.656;23.292;2022-11-15T11:58:54;94511.19;;;9.12;77.17
9676;BME280;4876;42.656;23.292;2022-11-15T12:01:24;94506.13;;;9.15;76.90
9676;BME280;4876;42.656;23.292;2022-11-15T12:03:57;94496.22;;;9.12;77.17
9676;BME280;4876;42.656;23.292;2022-11-15T12:06:31;94496.56;;;8.97;77.67
9676;BME280;4876;42.656;23.292;2022-11-15T12:09:03;94501.34;;;9.17;76.70
9676;BME280;4876;42.656;23.292;2022-11-15T12:11:38;94474.50;;;8.98;77.29
9676;BME280;4876;42.656;23.292;2022-11-15T12:14:16;94482.16;;;9.31;76.70
9676;BME280;4876;42.656;23.292;2022-11-15T12:16:47;94485.53;;;9.45;75.44
9676;BME280;4876;42.656;23.292;2022-11-15T12:19:14;94477.81;;;9.49;74.91
9676;BME280;4876;42.656;23.292;2022-11-15T12:21:45;94471.84;;;9.34;75.97
9676;BME280;4876;42.656;23.292;2022-11-15T12:24:24;94470.59;;;9.54;75.38
9676;BME280;4876;42.656;23.292;2022-11-15T12:26:55;94466.56;;;9.26;75.79
9676;BME280;4876;42.656;23.292;2022-11-15T12:29:29;94461.91;;;9.45;76.24
9676;BME280;4876;42.656;23.292;2022-11-15T12:31:58;94461.19;;;9.53;75.78
9676;BME280;4876;42.656;23.292;2022-11-15T12:34:43;94454.84;;;9.54;75.19
9676;BME280;4876;42.656;23.292;2022-11-15T12:40:26;94451.16;;;9.33;76.24
9676;BME280;4876;42.656;23.292;2022-11-15T12:42:58;94444.91;;;9.42;75.71
9676;BME280;4876;42.656;23.292;2022-11-15T12:45:28;94438.22;;;9.36;76.86
9676;BME280;4876;42.656;23.292;2022-11-15T12:49:46;94443.31;;;9.33;76.89
9676;BME280;4876;42.656;23.292;2022-11-15T12:52:14;94441.78;;;9.18;77.86
9676;BME280;4876;42.656;23.292;2022-11-15T12:55:28;94439.06;;;9.23;77.59
9676;BME280;4876;42.656;23.292;2022-11-15T12:58:24;94440.00;;;9.27;76.77
9676;BME280;4876;42.656;23.292;2022-11-15T13:00:53;94431.25;;;9.09;77.93
9676;BME280;4876;42.656;23.292;2022-11-15T13:03:26;94437.81;;;9.21;77.78
9676;BME280;4876;42.656;23.292;2022-11-15T13:06:09;94434.88;;;9.44;76.54
9676;BME280;4876;42.656;23.292;2022-11-15T13:08:48;94430.41;;;9.45;76.04
9676;BME280;4876;42.656;23.292;2022-11-15T13:11:51;94426.69;;;9.24;76.99
9676;BME280;4876;42.656;23.292;2022-11-15T13:17:32;94413.47;;;9.29;77.09
9676;BME280;4876;42.656;23.292;2022-11-15T13:22:46;94422.03;;;9.43;77.38
9676;BME280;4876;42.656;23.292;2022-11-15T13:25:32;94406.06;;;9.53;76.09
9676;BME280;4876;42.656;23.292;2022-11-15T13:28:03;94406.63;;;9.50;76.18
9676;BME280;4876;42.656;23.292;2022-11-15T13:30:36;94406.69;;;9.28;77.48
9676;BME280;4876;42.656;23.292;2022-11-15T13:33:09;94401.81;;;9.43;77.27
9676;BME280;4876;42.656;23.292;2022-11-15T13:35:39;94410.34;;;9.49;76.50
9676;BME280;4876;42.656;23.292;2022-11-15T13:38:18;94406.78;;;9.45;76.23
9676;BME280;4876;42.656;23.292;2022-11-15T13:40:45;94402.34;;;9.54;76.01
9676;BME280;4876;42.656;23.292;2022-11-15T13:43:26;94404.63;;;9.47;76.78
9676;BME280;4876;42.656;23.292;2022-11-15T13:46:04;94406.78;;;9.45;77.06
9676;BME280;4876;42.656;23.292;2022-11-15T13:48:31;94403.03;;;9.68;75.55
9676;BME280;4876;42.656;23.292;2022-11-15T13:51:00;94402.31;;;9.77;75.21
9676;BME280;4876;42.656;23.292;2022-11-15T13:53:30;94399.50;;;9.73;74.99
9676;BME280;4876;42.656;23.292;2022-11-15T13:55:58;94396.53;;;9.66;75.68